Belgrade, Minnesota
Current Conditions -  °F | °C
As of 5:14 AM on Thursday 23 Oct 2014 (Local Time) from KPEX Reporting Station
Overcast Overcast  
Wind Chill: 48°   Ceiling: 200
Heat Index: 49°   Visibility: 7mi
Dew Point: 49°   Wind: 5mph
Humidity: 100%   Direction: 160°SSE
Pressure: 29.97"   Gusts: NA
Location:  45.45°N, 95°W
Report Text: KPEX 231014Z AUTO 16004KT 7SM OVC002 10/10 A2997 RMK AO2 T00960097
Loading
Personal Weather Stations






























Interactive Weather Map
Tropical Storm Tracking
New forecast layout! Learn more

10-Day Weather Forecast

Advertisements
Track Severe Weather on mobile